sensor_id;sensor_type;location;lat;lon;timestamp;P1;durP1;ratioP1;P2;durP2;ratioP2
44750;SDS011;30477;48.224;11.470;2023-05-10T00:01:45;2.10;;;1.37;;
44750;SDS011;30477;48.224;11.470;2023-05-10T00:04:11;1.70;;;1.50;;
44750;SDS011;30477;48.224;11.470;2023-05-10T00:06:36;2.63;;;1.50;;
44750;SDS011;30477;48.224;11.470;2023-05-10T00:09:01;3.50;;;1.57;;
44750;SDS011;30477;48.224;11.470;2023-05-10T00:11:27;1.58;;;1.48;;
44750;SDS011;30477;48.224;11.470;2023-05-10T00:13:53;2.17;;;1.30;;
44750;SDS011;30477;48.224;11.470;2023-05-10T00:16:18;3.30;;;1.50;;
44750;SDS011;30477;48.224;11.470;2023-05-10T00:18:44;4.37;;;1.67;;
44750;SDS011;30477;48.224;11.470;2023-05-10T00:21:09;2.57;;;1.70;;
44750;SDS011;30477;48.224;11.470;2023-05-10T00:23:34;3.20;;;1.50;;
44750;SDS011;30477;48.224;11.470;2023-05-10T00:26:00;1.40;;;1.27;;
44750;SDS011;30477;48.224;11.470;2023-05-10T00:28:26;2.80;;;1.80;;
44750;SDS011;30477;48.224;11.470;2023-05-10T00:30:52;2.45;;;1.85;;
44750;SDS011;30477;48.224;11.470;2023-05-10T00:33:17;1.97;;;1.50;;
44750;SDS011;30477;48.224;11.470;2023-05-10T00:35:43;4.73;;;1.60;;
44750;SDS011;30477;48.224;11.470;2023-05-10T00:38:08;1.90;;;1.30;;
44750;SDS011;30477;48.224;11.470;2023-05-10T00:40:35;2.73;;;1.43;;
44750;SDS011;30477;48.224;11.470;2023-05-10T00:43:00;1.40;;;1.30;;
44750;SDS011;30477;48.224;11.470;2023-05-10T00:45:26;2.37;;;1.50;;
44750;SDS011;30477;48.224;11.470;2023-05-10T00:47:52;2.05;;;1.30;;
44750;SDS011;30477;48.224;11.470;2023-05-10T00:50:20;1.85;;;1.13;;
44750;SDS011;30477;48.224;11.470;2023-05-10T00:52:46;1.95;;;1.10;;
44750;SDS011;30477;48.224;11.470;2023-05-10T00:55:12;4.47;;;1.48;;
44750;SDS011;30477;48.224;11.470;2023-05-10T00:57:37;3.30;;;1.10;;
44750;SDS011;30477;48.224;11.470;2023-05-10T01:00:03;1.23;;;1.02;;
44750;SDS011;30477;48.224;11.470;2023-05-10T01:02:29;1.13;;;1.00;;
44750;SDS011;30477;48.224;11.470;2023-05-10T01:04:54;4.00;;;1.00;;
44750;SDS011;30477;48.224;11.470;2023-05-10T01:07:20;2.60;;;1.30;;
44750;SDS011;30477;48.224;11.470;2023-05-10T01:09:45;1.17;;;1.07;;
44750;SDS011;30477;48.224;11.470;2023-05-10T01:12:11;1.70;;;1.30;;
44750;SDS011;30477;48.224;11.470;2023-05-10T01:14:36;1.67;;;1.13;;
44750;SDS011;30477;48.224;11.470;2023-05-10T01:17:02;2.75;;;1.10;;
44750;SDS011;30477;48.224;11.470;2023-05-10T01:19:29;2.08;;;1.00;;
44750;SDS011;30477;48.224;11.470;2023-05-10T01:24:44;0.80;;;0.80;;
44750;SDS011;30477;48.224;11.470;2023-05-10T01:35:37;1.25;;;1.08;;
44750;SDS011;30477;48.224;11.470;2023-05-10T01:38:34;1.95;;;1.10;;
44750;SDS011;30477;48.224;11.470;2023-05-10T01:41:19;1.98;;;1.10;;
44750;SDS011;30477;48.224;11.470;2023-05-10T01:43:52;1.58;;;1.08;;
44750;SDS011;30477;48.224;11.470;2023-05-10T01:46:27;0.95;;;0.93;;
44750;SDS011;30477;48.224;11.470;2023-05-10T01:48:58;1.77;;;0.80;;
44750;SDS011;30477;48.224;11.470;2023-05-10T01:51:25;2.28;;;0.90;;
44750;SDS011;30477;48.224;11.470;2023-05-10T01:54:00;0.80;;;0.77;;
44750;SDS011;30477;48.224;11.470;2023-05-10T01:56:28;0.88;;;0.80;;
44750;SDS011;30477;48.224;11.470;2023-05-10T01:58:55;1.95;;;0.80;;
44750;SDS011;30477;48.224;11.470;2023-05-10T02:01:21;1.67;;;0.90;;
44750;SDS011;30477;48.224;11.470;2023-05-10T02:03:48;1.20;;;0.80;;
44750;SDS011;30477;48.224;11.470;2023-05-10T02:06:16;0.85;;;0.70;;
44750;SDS011;30477;48.224;11.470;2023-05-10T02:08:45;0.95;;;0.70;;
44750;SDS011;30477;48.224;11.470;2023-05-10T02:11:12;0.98;;;0.77;;
44750;SDS011;30477;48.224;11.470;2023-05-10T02:13:38;0.80;;;0.80;;
44750;SDS011;30477;48.224;11.470;2023-05-10T02:16:05;1.80;;;0.82;;
44750;SDS011;30477;48.224;11.470;2023-05-10T02:18:32;0.80;;;0.80;;
44750;SDS011;30477;48.224;11.470;2023-05-10T02:21:00;0.80;;;0.80;;
44750;SDS011;30477;48.224;11.470;2023-05-10T02:23:26;1.35;;;1.00;;
44750;SDS011;30477;48.224;11.470;2023-05-10T02:25:54;1.50;;;0.88;;
44750;SDS011;30477;48.224;11.470;2023-05-10T02:28:22;1.40;;;0.80;;
44750;SDS011;30477;48.224;11.470;2023-05-10T02:30:49;0.70;;;0.70;;
44750;SDS011;30477;48.224;11.470;2023-05-10T02:33:17;1.00;;;0.80;;
44750;SDS011;30477;48.224;11.470;2023-05-10T02:35:43;1.50;;;0.70;;
44750;SDS011;30477;48.224;11.470;2023-05-10T02:38:09;0.80;;;0.80;;
44750;SDS011;30477;48.224;11.470;2023-05-10T02:40:36;0.70;;;0.70;;
44750;SDS011;30477;48.224;11.470;2023-05-10T02:43:03;1.55;;;0.93;;
44750;SDS011;30477;48.224;11.470;2023-05-10T02:45:31;1.75;;;0.70;;
44750;SDS011;30477;48.224;11.470;2023-05-10T02:47:57;1.23;;;0.73;;
44750;SDS011;30477;48.224;11.470;2023-05-10T02:50:25;1.58;;;0.80;;
44750;SDS011;30477;48.224;11.470;2023-05-10T02:52:54;1.13;;;0.77;;
44750;SDS011;30477;48.224;11.470;2023-05-10T02:55:26;1.98;;;0.75;;
44750;SDS011;30477;48.224;11.470;2023-05-10T02:57:58;0.80;;;0.80;;
44750;SDS011;30477;48.224;11.470;2023-05-10T03:00:26;0.70;;;0.70;;
44750;SDS011;30477;48.224;11.470;2023-05-10T03:02:51;0.70;;;0.70;;
44750;SDS011;30477;48.224;11.470;2023-05-10T03:05:17;0.93;;;0.73;;
44750;SDS011;30477;48.224;11.470;2023-05-10T03:07:43;1.00;;;0.90;;
44750;SDS011;30477;48.224;11.470;2023-05-10T03:10:09;0.77;;;0.63;;
44750;SDS011;30477;48.224;11.470;2023-05-10T03:12:41;0.90;;;0.73;;
44750;SDS011;30477;48.224;11.470;2023-05-10T03:15:13;2.33;;;0.82;;
44750;SDS011;30477;48.224;11.470;2023-05-10T03:20:36;0.98;;;0.90;;
44750;SDS011;30477;48.224;11.470;2023-05-10T03:23:18;2.25;;;0.90;;
44750;SDS011;30477;48.224;11.470;2023-05-10T03:25:48;0.98;;;0.90;;
44750;SDS011;30477;48.224;11.470;2023-05-10T03:28:18;1.48;;;0.90;;
44750;SDS011;30477;48.224;11.470;2023-05-10T03:30:45;1.85;;;0.70;;
44750;SDS011;30477;48.224;11.470;2023-05-10T03:33:11;1.52;;;1.10;;
44750;SDS011;30477;48.224;11.470;2023-05-10T03:35:38;1.00;;;0.90;;
44750;SDS011;30477;48.224;11.470;2023-05-10T03:38:03;1.08;;;0.93;;
44750;SDS011;30477;48.224;11.470;2023-05-10T03:40:29;1.77;;;0.80;;
44750;SDS011;30477;48.224;11.470;2023-05-10T03:42:56;2.47;;;1.00;;
44750;SDS011;30477;48.224;11.470;2023-05-10T03:45:21;0.70;;;0.70;;
44750;SDS011;30477;48.224;11.470;2023-05-10T03:47:47;1.63;;;0.80;;
44750;SDS011;30477;48.224;11.470;2023-05-10T03:50:12;1.00;;;0.87;;
44750;SDS011;30477;48.224;11.470;2023-05-10T03:52:37;1.70;;;0.83;;
44750;SDS011;30477;48.224;11.470;2023-05-10T03:55:04;1.85;;;0.80;;
44750;SDS011;30477;48.224;11.470;2023-05-10T03:57:30;1.42;;;0.90;;
44750;SDS011;30477;48.224;11.470;2023-05-10T03:59:56;0.80;;;0.80;;
44750;SDS011;30477;48.224;11.470;2023-05-10T04:02:21;1.67;;;1.00;;
44750;SDS011;30477;48.224;11.470;2023-05-10T04:04:46;1.13;;;0.70;;
44750;SDS011;30477;48.224;11.470;2023-05-10T04:09:38;0.73;;;0.73;;
44750;SDS011;30477;48.224;11.470;2023-05-10T04:12:03;1.20;;;1.00;;
44750;SDS011;30477;48.224;11.470;2023-05-10T04:14:29;0.80;;;0.80;;
44750;SDS011;30477;48.224;11.470;2023-05-10T04:16:54;1.00;;;0.80;;
44750;SDS011;30477;48.224;11.470;2023-05-10T04:19:20;1.00;;;0.90;;
44750;SDS011;30477;48.224;11.470;2023-05-10T04:21:45;1.03;;;1.00;;
44750;SDS011;30477;48.224;11.470;2023-05-10T04:24:10;1.13;;;0.77;;
44750;SDS011;30477;48.224;11.470;2023-05-10T04:26:36;1.42;;;0.90;;
44750;SDS011;30477;48.224;11.470;2023-05-10T04:29:02;0.87;;;0.87;;
44750;SDS011;30477;48.224;11.470;2023-05-10T04:31:27;3.40;;;1.03;;
44750;SDS011;30477;48.224;11.470;2023-05-10T04:33:53;0.70;;;0.70;;
44750;SDS011;30477;48.224;11.470;2023-05-10T04:36:18;2.33;;;0.80;;
44750;SDS011;30477;48.224;11.470;2023-05-10T04:38:43;0.80;;;0.80;;
44750;SDS011;30477;48.224;11.470;2023-05-10T04:41:10;1.50;;;1.03;;
44750;SDS011;30477;48.224;11.470;2023-05-10T04:43:36;1.10;;;0.90;;
44750;SDS011;30477;48.224;11.470;2023-05-10T04:46:02;2.00;;;0.90;;
44750;SDS011;30477;48.224;11.470;2023-05-10T04:48:28;0.85;;;0.80;;
44750;SDS011;30477;48.224;11.470;2023-05-10T04:50:53;1.33;;;1.00;;
44750;SDS011;30477;48.224;11.470;2023-05-10T04:53:19;3.93;;;1.10;;
44750;SDS011;30477;48.224;11.470;2023-05-10T04:55:44;0.87;;;0.60;;
44750;SDS011;30477;48.224;11.470;2023-05-10T04:58:10;2.47;;;0.70;;
44750;SDS011;30477;48.224;11.470;2023-05-10T05:00:35;0.93;;;0.70;;
44750;SDS011;30477;48.224;11.470;2023-05-10T05:03:01;0.63;;;0.50;;
44750;SDS011;30477;48.224;11.470;2023-05-10T05:05:26;0.50;;;0.50;;
44750;SDS011;30477;48.224;11.470;2023-05-10T05:07:51;0.63;;;0.40;;
44750;SDS011;30477;48.224;11.470;2023-05-10T05:10:17;2.30;;;0.80;;
44750;SDS011;30477;48.224;11.470;2023-05-10T05:12:42;0.60;;;0.60;;
44750;SDS011;30477;48.224;11.470;2023-05-10T05:15:08;1.20;;;0.70;;
44750;SDS011;30477;48.224;11.470;2023-05-10T05:17:34;2.05;;;0.60;;
44750;SDS011;30477;48.224;11.470;2023-05-10T05:20:00;2.55;;;0.70;;
44750;SDS011;30477;48.224;11.470;2023-05-10T05:22:25;0.57;;;0.57;;
44750;SDS011;30477;48.224;11.470;2023-05-10T05:24:55;1.83;;;0.80;;
44750;SDS011;30477;48.224;11.470;2023-05-10T05:27:23;5.60;;;0.93;;
44750;SDS011;30477;48.224;11.470;2023-05-10T05:29:54;1.95;;;0.70;;
44750;SDS011;30477;48.224;11.470;2023-05-10T05:32:20;1.75;;;0.65;;
44750;SDS011;30477;48.224;11.470;2023-05-10T05:34:45;1.67;;;0.82;;
44750;SDS011;30477;48.224;11.470;2023-05-10T05:37:14;1.48;;;0.70;;
44750;SDS011;30477;48.224;11.470;2023-05-10T05:39:41;0.77;;;0.60;;
44750;SDS011;30477;48.224;11.470;2023-05-10T05:42:08;0.90;;;0.70;;
44750;SDS011;30477;48.224;11.470;2023-05-10T05:44:34;2.58;;;0.82;;
44750;SDS011;30477;48.224;11.470;2023-05-10T05:46:59;1.10;;;1.00;;
44750;SDS011;30477;48.224;11.470;2023-05-10T05:49:24;3.43;;;0.60;;
44750;SDS011;30477;48.224;11.470;2023-05-10T05:51:50;1.87;;;1.00;;
44750;SDS011;30477;48.224;11.470;2023-05-10T05:54:18;1.23;;;0.90;;
44750;SDS011;30477;48.224;11.470;2023-05-10T05:56:44;1.60;;;1.30;;
44750;SDS011;30477;48.224;11.470;2023-05-10T05:59:09;3.60;;;1.10;;
44750;SDS011;30477;48.224;11.470;2023-05-10T06:01:35;1.38;;;0.93;;
44750;SDS011;30477;48.224;11.470;2023-05-10T06:04:00;2.07;;;1.30;;
44750;SDS011;30477;48.224;11.470;2023-05-10T06:06:26;1.57;;;0.90;;
44750;SDS011;30477;48.224;11.470;2023-05-10T06:08:51;3.87;;;1.40;;
44750;SDS011;30477;48.224;11.470;2023-05-10T06:11:17;2.17;;;1.20;;
44750;SDS011;30477;48.224;11.470;2023-05-10T06:13:42;2.67;;;1.00;;
44750;SDS011;30477;48.224;11.470;2023-05-10T06:16:08;3.03;;;1.30;;
44750;SDS011;30477;48.224;11.470;2023-05-10T06:18:33;1.27;;;1.17;;
44750;SDS011;30477;48.224;11.470;2023-05-10T06:20:59;1.55;;;1.30;;
44750;SDS011;30477;48.224;11.470;2023-05-10T06:23:24;3.00;;;1.23;;
44750;SDS011;30477;48.224;11.470;2023-05-10T06:25:50;3.33;;;1.10;;
44750;SDS011;30477;48.224;11.470;2023-05-10T06:28:16;1.65;;;1.10;;
44750;SDS011;30477;48.224;11.470;2023-05-10T06:30:41;1.20;;;1.10;;
44750;SDS011;30477;48.224;11.470;2023-05-10T06:33:07;1.63;;;1.17;;
44750;SDS011;30477;48.224;11.470;2023-05-10T06:35:33;1.43;;;1.10;;
44750;SDS011;30477;48.224;11.470;2023-05-10T06:37:58;1.30;;;1.10;;
44750;SDS011;30477;48.224;11.470;2023-05-10T06:40:23;2.90;;;1.20;;
44750;SDS011;30477;48.224;11.470;2023-05-10T06:42:49;2.87;;;1.13;;
44750;SDS011;30477;48.224;11.470;2023-05-10T06:45:14;0.90;;;0.90;;
44750;SDS011;30477;48.224;11.470;2023-05-10T06:47:40;1.50;;;1.10;;
44750;SDS011;30477;48.224;11.470;2023-05-10T06:50:09;3.33;;;1.00;;
44750;SDS011;30477;48.224;11.470;2023-05-10T06:52:36;5.25;;;1.15;;
44750;SDS011;30477;48.224;11.470;2023-05-10T06:55:05;1.40;;;1.00;;
44750;SDS011;30477;48.224;11.470;2023-05-10T06:57:31;1.35;;;0.98;;
44750;SDS011;30477;48.224;11.470;2023-05-10T06:59:57;0.90;;;0.90;;
44750;SDS011;30477;48.224;11.470;2023-05-10T07:02:26;1.80;;;0.80;;
44750;SDS011;30477;48.224;11.470;2023-05-10T07:04:51;2.63;;;1.00;;
44750;SDS011;30477;48.224;11.470;2023-05-10T07:07:17;0.90;;;0.90;;
44750;SDS011;30477;48.224;11.470;2023-05-10T07:09:43;1.10;;;1.00;;
44750;SDS011;30477;48.224;11.470;2023-05-10T07:12:08;0.90;;;0.80;;
44750;SDS011;30477;48.224;11.470;2023-05-10T07:14:33;1.07;;;0.97;;
44750;SDS011;30477;48.224;11.470;2023-05-10T07:16:59;1.20;;;1.10;;
44750;SDS011;30477;48.224;11.470;2023-05-10T07:19:24;3.10;;;1.17;;
44750;SDS011;30477;48.224;11.470;2023-05-10T07:21:50;1.07;;;1.00;;
44750;SDS011;30477;48.224;11.470;2023-05-10T07:24:15;2.15;;;1.05;;
44750;SDS011;30477;48.224;11.470;2023-05-10T07:26:41;5.10;;;2.03;;
44750;SDS011;30477;48.224;11.470;2023-05-10T07:29:06;2.37;;;1.00;;
44750;SDS011;30477;48.224;11.470;2023-05-10T07:31:32;3.10;;;1.10;;
44750;SDS011;30477;48.224;11.470;2023-05-10T07:33:57;1.47;;;1.30;;
44750;SDS011;30477;48.224;11.470;2023-05-10T07:36:22;3.17;;;1.20;;
44750;SDS011;30477;48.224;11.470;2023-05-10T07:38:48;1.57;;;1.00;;
44750;SDS011;30477;48.224;11.470;2023-05-10T07:41:14;2.92;;;1.25;;
44750;SDS011;30477;48.224;11.470;2023-05-10T07:43:39;1.40;;;1.10;;
44750;SDS011;30477;48.224;11.470;2023-05-10T07:46:05;1.10;;;1.00;;
44750;SDS011;30477;48.224;11.470;2023-05-10T07:50:56;3.57;;;1.10;;
44750;SDS011;30477;48.224;11.470;2023-05-10T07:53:22;1.17;;;1.07;;
44750;SDS011;30477;48.224;11.470;2023-05-10T07:55:51;1.37;;;1.00;;
44750;SDS011;30477;48.224;11.470;2023-05-10T07:58:19;1.17;;;1.08;;
44750;SDS011;30477;48.224;11.470;2023-05-10T08:00:44;2.30;;;1.03;;
44750;SDS011;30477;48.224;11.470;2023-05-10T08:03:10;4.00;;;1.40;;
44750;SDS011;30477;48.224;11.470;2023-05-10T08:05:35;2.53;;;1.10;;
44750;SDS011;30477;48.224;11.470;2023-05-10T08:08:01;2.53;;;1.13;;
44750;SDS011;30477;48.224;11.470;2023-05-10T08:10:26;1.23;;;1.10;;
44750;SDS011;30477;48.224;11.470;2023-05-10T08:12:51;1.23;;;1.10;;
44750;SDS011;30477;48.224;11.470;2023-05-10T08:15:17;2.90;;;1.27;;
44750;SDS011;30477;48.224;11.470;2023-05-10T08:17:42;2.77;;;0.97;;
44750;SDS011;30477;48.224;11.470;2023-05-10T08:20:08;1.10;;;1.00;;
44750;SDS011;30477;48.224;11.470;2023-05-10T08:22:34;2.80;;;1.23;;
44750;SDS011;30477;48.224;11.470;2023-05-10T08:24:59;1.60;;;1.07;;
44750;SDS011;30477;48.224;11.470;2023-05-10T08:27:24;3.73;;;1.17;;
44750;SDS011;30477;48.224;11.470;2023-05-10T08:29:50;3.10;;;1.10;;
44750;SDS011;30477;48.224;11.470;2023-05-10T08:32:15;1.30;;;0.97;;
44750;SDS011;30477;48.224;11.470;2023-05-10T08:34:41;1.60;;;1.10;;
44750;SDS011;30477;48.224;11.470;2023-05-10T08:37:06;0.97;;;0.80;;
44750;SDS011;30477;48.224;11.470;2023-05-10T08:39:35;1.70;;;1.00;;
44750;SDS011;30477;48.224;11.470;2023-05-10T08:42:01;1.92;;;0.80;;
44750;SDS011;30477;48.224;11.470;2023-05-10T08:44:29;2.85;;;1.10;;
44750;SDS011;30477;48.224;11.470;2023-05-10T08:46:56;1.13;;;0.85;;
44750;SDS011;30477;48.224;11.470;2023-05-10T08:49:24;1.00;;;0.90;;
44750;SDS011;30477;48.224;11.470;2023-05-10T08:51:54;1.55;;;0.90;;
44750;SDS011;30477;48.224;11.470;2023-05-10T08:54:20;3.17;;;1.23;;
44750;SDS011;30477;48.224;11.470;2023-05-10T08:56:46;1.88;;;1.10;;
44750;SDS011;30477;48.224;11.470;2023-05-10T08:59:12;4.53;;;0.98;;
44750;SDS011;30477;48.224;11.470;2023-05-10T09:01:38;1.58;;;0.75;;
44750;SDS011;30477;48.224;11.470;2023-05-10T09:04:07;2.05;;;0.73;;
44750;SDS011;30477;48.224;11.470;2023-05-10T09:06:32;0.80;;;0.70;;
44750;SDS011;30477;48.224;11.470;2023-05-10T09:08:58;1.43;;;0.60;;
44750;SDS011;30477;48.224;11.470;2023-05-10T09:11:23;0.90;;;0.70;;
44750;SDS011;30477;48.224;11.470;2023-05-10T09:13:49;1.13;;;0.90;;
44750;SDS011;30477;48.224;11.470;2023-05-10T09:16:17;2.85;;;0.90;;
44750;SDS011;30477;48.224;11.470;2023-05-10T09:18:42;1.00;;;0.70;;
44750;SDS011;30477;48.224;11.470;2023-05-10T09:21:07;1.20;;;1.00;;
44750;SDS011;30477;48.224;11.470;2023-05-10T09:23:34;1.70;;;1.00;;
44750;SDS011;30477;48.224;11.470;2023-05-10T09:26:05;1.70;;;0.83;;
44750;SDS011;30477;48.224;11.470;2023-05-10T09:28:32;1.40;;;1.00;;
44750;SDS011;30477;48.224;11.470;2023-05-10T09:31:21;5.00;;;0.90;;
44750;SDS011;30477;48.224;11.470;2023-05-10T09:33:47;1.33;;;0.57;;
44750;SDS011;30477;48.224;11.470;2023-05-10T09:36:13;2.75;;;1.10;;
44750;SDS011;30477;48.224;11.470;2023-05-10T09:41:19;0.63;;;0.60;;
44750;SDS011;30477;48.224;11.470;2023-05-10T09:43:46;1.63;;;1.00;;
44750;SDS011;30477;48.224;11.470;2023-05-10T09:46:11;2.42;;;0.77;;
44750;SDS011;30477;48.224;11.470;2023-05-10T09:48:40;2.10;;;0.80;;
44750;SDS011;30477;48.224;11.470;2023-05-10T09:51:07;2.42;;;0.70;;
44750;SDS011;30477;48.224;11.470;2023-05-10T09:53:33;1.27;;;1.00;;
44750;SDS011;30477;48.224;11.470;2023-05-10T09:55:58;2.90;;;1.00;;
44750;SDS011;30477;48.224;11.470;2023-05-10T09:58:23;2.63;;;1.00;;
44750;SDS011;30477;48.224;11.470;2023-05-10T10:00:49;2.67;;;0.80;;
44750;SDS011;30477;48.224;11.470;2023-05-10T10:03:18;2.30;;;1.00;;
44750;SDS011;30477;48.224;11.470;2023-05-10T10:05:45;2.15;;;0.90;;
44750;SDS011;30477;48.224;11.470;2023-05-10T10:08:12;1.17;;;0.85;;
44750;SDS011;30477;48.224;11.470;2023-05-10T10:10:38;0.90;;;0.80;;
44750;SDS011;30477;48.224;11.470;2023-05-10T10:13:09;1.92;;;0.90;;
44750;SDS011;30477;48.224;11.470;2023-05-10T10:15:34;0.93;;;0.80;;
44750;SDS011;30477;48.224;11.470;2023-05-10T10:18:00;1.25;;;0.80;;
44750;SDS011;30477;48.224;11.470;2023-05-10T10:20:26;1.73;;;0.82;;
44750;SDS011;30477;48.224;11.470;2023-05-10T10:22:53;2.60;;;1.00;;
44750;SDS011;30477;48.224;11.470;2023-05-10T10:25:19;1.90;;;1.20;;
44750;SDS011;30477;48.224;11.470;2023-05-10T10:35:35;4.47;;;1.08;;
44750;SDS011;30477;48.224;11.470;2023-05-10T10:38:02;2.15;;;0.90;;
44750;SDS011;30477;48.224;11.470;2023-05-10T10:40:31;1.38;;;0.98;;
44750;SDS011;30477;48.224;11.470;2023-05-10T10:42:57;2.72;;;1.10;;
44750;SDS011;30477;48.224;11.470;2023-05-10T10:45:43;2.92;;;0.90;;
44750;SDS011;30477;48.224;11.470;2023-05-10T10:48:21;2.50;;;0.80;;
44750;SDS011;30477;48.224;11.470;2023-05-10T10:50:48;2.35;;;0.90;;
44750;SDS011;30477;48.224;11.470;2023-05-10T10:53:21;1.67;;;0.57;;
44750;SDS011;30477;48.224;11.470;2023-05-10T10:55:47;1.17;;;0.87;;
44750;SDS011;30477;48.224;11.470;2023-05-10T10:58:28;4.72;;;1.63;;
44750;SDS011;30477;48.224;11.470;2023-05-10T11:01:15;0.93;;;0.73;;
44750;SDS011;30477;48.224;11.470;2023-05-10T11:06:29;1.13;;;0.93;;
44750;SDS011;30477;48.224;11.470;2023-05-10T11:08:56;3.10;;;1.15;;
44750;SDS011;30477;48.224;11.470;2023-05-10T11:11:22;3.22;;;1.42;;
44750;SDS011;30477;48.224;11.470;2023-05-10T11:13:48;1.53;;;1.10;;
44750;SDS011;30477;48.224;11.470;2023-05-10T11:16:23;2.65;;;1.40;;
44750;SDS011;30477;48.224;11.470;2023-05-10T11:21:26;2.85;;;1.83;;
44750;SDS011;30477;48.224;11.470;2023-05-10T11:23:53;2.25;;;1.70;;
44750;SDS011;30477;48.224;11.470;2023-05-10T11:26:23;4.05;;;1.75;;
44750;SDS011;30477;48.224;11.470;2023-05-10T11:28:51;2.85;;;2.00;;
44750;SDS011;30477;48.224;11.470;2023-05-10T11:31:19;3.28;;;1.75;;
44750;SDS011;30477;48.224;11.470;2023-05-10T11:33:45;3.58;;;1.90;;
44750;SDS011;30477;48.224;11.470;2023-05-10T11:36:13;5.03;;;2.40;;
44750;SDS011;30477;48.224;11.470;2023-05-10T11:38:39;3.92;;;2.20;;
44750;SDS011;30477;48.224;11.470;2023-05-10T11:41:05;3.73;;;2.13;;
44750;SDS011;30477;48.224;11.470;2023-05-10T11:43:32;4.80;;;1.80;;
44750;SDS011;30477;48.224;11.470;2023-05-10T11:45:58;3.23;;;2.00;;
44750;SDS011;30477;48.224;11.470;2023-05-10T11:48:24;3.60;;;1.92;;
44750;SDS011;30477;48.224;11.470;2023-05-10T11:50:49;2.40;;;1.53;;
44750;SDS011;30477;48.224;11.470;2023-05-10T11:53:15;2.67;;;1.50;;
44750;SDS011;30477;48.224;11.470;2023-05-10T11:55:40;3.07;;;1.67;;
44750;SDS011;30477;48.224;11.470;2023-05-10T11:58:05;2.37;;;1.67;;
44750;SDS011;30477;48.224;11.470;2023-05-10T12:00:31;5.20;;;2.20;;
44750;SDS011;30477;48.224;11.470;2023-05-10T12:02:56;4.57;;;1.60;;
44750;SDS011;30477;48.224;11.470;2023-05-10T12:05:22;3.97;;;1.83;;
44750;SDS011;30477;48.224;11.470;2023-05-10T12:07:48;4.85;;;1.90;;
44750;SDS011;30477;48.224;11.470;2023-05-10T12:10:14;2.60;;;1.60;;
44750;SDS011;30477;48.224;11.470;2023-05-10T12:12:40;3.00;;;1.70;;
44750;SDS011;30477;48.224;11.470;2023-05-10T12:15:17;3.03;;;1.50;;
44750;SDS011;30477;48.224;11.470;2023-05-10T12:17:46;3.53;;;1.80;;
44750;SDS011;30477;48.224;11.470;2023-05-10T12:20:15;3.10;;;1.60;;
44750;SDS011;30477;48.224;11.470;2023-05-10T12:22:44;2.03;;;1.10;;
44750;SDS011;30477;48.224;11.470;2023-05-10T12:25:10;1.83;;;0.95;;
44750;SDS011;30477;48.224;11.470;2023-05-10T12:27:35;2.63;;;1.03;;
44750;SDS011;30477;48.224;11.470;2023-05-10T12:30:01;2.03;;;1.00;;
44750;SDS011;30477;48.224;11.470;2023-05-10T12:32:40;0.90;;;0.73;;
44750;SDS011;30477;48.224;11.470;2023-05-10T12:35:06;2.55;;;0.88;;
44750;SDS011;30477;48.224;11.470;2023-05-10T12:37:31;2.15;;;1.10;;
44750;SDS011;30477;48.224;11.470;2023-05-10T12:40:00;3.30;;;0.88;;
44750;SDS011;30477;48.224;11.470;2023-05-10T12:42:27;2.88;;;1.10;;
44750;SDS011;30477;48.224;11.470;2023-05-10T12:44:56;2.57;;;1.07;;
44750;SDS011;30477;48.224;11.470;2023-05-10T12:47:22;1.50;;;0.90;;
44750;SDS011;30477;48.224;11.470;2023-05-10T12:49:47;1.33;;;0.90;;
44750;SDS011;30477;48.224;11.470;2023-05-10T12:52:12;1.80;;;1.00;;
44750;SDS011;30477;48.224;11.470;2023-05-10T12:54:38;4.10;;;1.10;;
44750;SDS011;30477;48.224;11.470;2023-05-10T12:57:03;3.73;;;1.20;;
44750;SDS011;30477;48.224;11.470;2023-05-10T12:59:28;1.57;;;1.00;;
44750;SDS011;30477;48.224;11.470;2023-05-10T13:01:54;3.07;;;0.97;;
44750;SDS011;30477;48.224;11.470;2023-05-10T13:04:19;3.00;;;1.07;;
44750;SDS011;30477;48.224;11.470;2023-05-10T13:06:45;1.17;;;1.08;;
44750;SDS011;30477;48.224;11.470;2023-05-10T13:09:10;2.90;;;1.20;;
44750;SDS011;30477;48.224;11.470;2023-05-10T13:11:35;1.80;;;1.40;;
44750;SDS011;30477;48.224;11.470;2023-05-10T13:14:01;2.20;;;1.20;;
44750;SDS011;30477;48.224;11.470;2023-05-10T13:16:28;1.88;;;1.33;;
44750;SDS011;30477;48.224;11.470;2023-05-10T13:18:53;3.30;;;1.83;;
44750;SDS011;30477;48.224;11.470;2023-05-10T13:21:18;2.23;;;1.60;;
44750;SDS011;30477;48.224;11.470;2023-05-10T13:23:44;4.80;;;1.30;;
44750;SDS011;30477;48.224;11.470;2023-05-10T13:26:09;3.07;;;1.20;;
44750;SDS011;30477;48.224;11.470;2023-05-10T13:28:35;4.20;;;1.13;;
44750;SDS011;30477;48.224;11.470;2023-05-10T13:31:00;1.63;;;1.30;;
44750;SDS011;30477;48.224;11.470;2023-05-10T13:33:25;1.97;;;1.30;;
44750;SDS011;30477;48.224;11.470;2023-05-10T13:35:51;1.80;;;1.43;;
44750;SDS011;30477;48.224;11.470;2023-05-10T13:38:16;5.83;;;1.70;;
44750;SDS011;30477;48.224;11.470;2023-05-10T13:40:42;2.20;;;1.40;;
44750;SDS011;30477;48.224;11.470;2023-05-10T13:43:07;1.40;;;1.30;;
44750;SDS011;30477;48.224;11.470;2023-05-10T13:45:32;4.57;;;1.37;;
44750;SDS011;30477;48.224;11.470;2023-05-10T13:47:58;2.13;;;1.50;;
44750;SDS011;30477;48.224;11.470;2023-05-10T13:50:24;2.05;;;1.50;;
44750;SDS011;30477;48.224;11.470;2023-05-10T13:52:49;2.83;;;1.70;;
44750;SDS011;30477;48.224;11.470;2023-05-10T13:55:15;2.53;;;2.00;;
44750;SDS011;30477;48.224;11.470;2023-05-10T13:57:40;4.07;;;1.42;;
44750;SDS011;30477;48.224;11.470;2023-05-10T14:00:06;2.13;;;1.60;;
44750;SDS011;30477;48.224;11.470;2023-05-10T14:02:32;3.00;;;1.88;;
44750;SDS011;30477;48.224;11.470;2023-05-10T14:04:57;2.63;;;1.70;;
44750;SDS011;30477;48.224;11.470;2023-05-10T14:07:23;5.83;;;2.00;;
44750;SDS011;30477;48.224;11.470;2023-05-10T14:09:48;2.33;;;1.60;;
44750;SDS011;30477;48.224;11.470;2023-05-10T14:12:14;3.60;;;1.57;;
44750;SDS011;30477;48.224;11.470;2023-05-10T14:14:39;3.40;;;1.60;;
44750;SDS011;30477;48.224;11.470;2023-05-10T14:17:05;2.53;;;1.50;;
44750;SDS011;30477;48.224;11.470;2023-05-10T14:19:30;2.70;;;1.47;;
44750;SDS011;30477;48.224;11.470;2023-05-10T14:21:57;3.45;;;1.60;;
44750;SDS011;30477;48.224;11.470;2023-05-10T14:24:22;1.90;;;1.20;;
44750;SDS011;30477;48.224;11.470;2023-05-10T14:26:48;6.27;;;1.73;;
44750;SDS011;30477;48.224;11.470;2023-05-10T14:29:13;2.10;;;1.50;;
44750;SDS011;30477;48.224;11.470;2023-05-10T14:31:39;2.60;;;1.47;;
44750;SDS011;30477;48.224;11.470;2023-05-10T14:34:05;5.57;;;1.85;;
44750;SDS011;30477;48.224;11.470;2023-05-10T14:36:30;3.53;;;1.47;;
44750;SDS011;30477;48.224;11.470;2023-05-10T14:38:56;4.18;;;1.80;;
44750;SDS011;30477;48.224;11.470;2023-05-10T14:41:22;3.23;;;1.33;;
44750;SDS011;30477;48.224;11.470;2023-05-10T14:43:47;4.35;;;1.23;;
44750;SDS011;30477;48.224;11.470;2023-05-10T14:46:13;3.07;;;1.37;;
44750;SDS011;30477;48.224;11.470;2023-05-10T14:48:38;0.97;;;0.90;;
44750;SDS011;30477;48.224;11.470;2023-05-10T14:51:04;1.80;;;1.30;;
44750;SDS011;30477;48.224;11.470;2023-05-10T14:53:29;2.17;;;1.10;;
44750;SDS011;30477;48.224;11.470;2023-05-10T14:55:54;1.50;;;1.30;;
44750;SDS011;30477;48.224;11.470;2023-05-10T14:58:20;3.60;;;1.30;;
44750;SDS011;30477;48.224;11.470;2023-05-10T15:00:45;1.30;;;1.20;;
44750;SDS011;30477;48.224;11.470;2023-05-10T15:03:11;2.20;;;1.20;;
44750;SDS011;30477;48.224;11.470;2023-05-10T15:05:37;2.37;;;1.30;;